Pagina principală
METAR-TAF:

METAR-TAF

Aeroporturi :

Touho, Noua Caledonie

Latitudine: 20-47-25S, longitudine: 165-15-34E, elevație: 3 m

METAR: lipsă

Ora: 19:53 (08:53 UTC)

Prognoză

Raportul a fost făcut în urmă cu 15 ore și 53 de minute, la 17:00 UTC
Prognoză valabilă de la 23 ora 18 UTC la 24 ora 18 UTC
Vânt 8 kt de la Sud/Sud-est
Vizibilitate de 10 km sau mai mult
Nori împrăștiați la o înălțime de 1000 picior
Nori fragmentați la o înălțime de 2000 picior
Temporar
de la 23 ora 18 UTC la 24 ora 06 UTC
Vizibilitate: 4000 m
Nori fragmentați la o înălțime de 1400 picior
Nori puțini la o înălțime de 2000 picior, Cumulus congestus.
averse de ploaie
Devenind
de la 23 ora 22 UTC la 23 ora 24 UTC
Vânt 10 kt de la Nord-vest
Devenind
de la 24 ora 07 UTC la 24 ora 09 UTC
Vânt 12 kt de la Sud-vest

TAF: NWWU 231700Z 2318/2418 15008KT 9999 SCT010 BKN020 TEMPO 2318/2406 4000 SHRA BKN014 FEW020TCU BECMG 2322/2324 32010KT BECMG 2407/2409 22012KT

Observații și prognoze meteo pentru peste 4.000 de aeroporturi (rapoarte METAR și TAF).

Stațiile disponibile sunt reprezentate pe hartă prin puncte galbene și roșii.

Țineți indicatorul mouse-ului pe punctul dorit pentru a vedea denumirea stației.

Apoi, faceți clic pentru a vedea observațiile și prognozele meteorologice.

Pentru a schimba harta: Pentru mărire, faceți clic pe butoanele verzi cu cruce neagră; pentru micșorare, pe butonul verde cu o liniuță; pentru hărți învecinate, pe săgețile verzi.


METAR-TAF: